Newville, PA (17241)

8:28 PM EDT on April 25, 2015 (GMT -0400)
Upper Mifflin Township | | Change Station
CLOSE
Current Station
Personal Weather Station
Location: Newville, PA
Elevation: 659 ft
Nearby Weather Stations

Elev 659 ft 40.21 °N, 77.49 °W | Updated 22 seconds ago

Partly Cloudy
Partly Cloudy
46.6 °F
Feels Like 47 °F
N
0.0
Wind Variable Wind from NW
Gusts 1.6 mph

Today
High -- | Low -- °F
--% Chance of Precip.
Yesterday
High -- | Low -- °F
Precip. -- in
6:17 AM 7:58 PM
Waxing Crescent, 50% visible
Pressure 29.73 in
Visibility 10.0 miles
Clouds Clear
Windchill 47 °F
Dew Point 37 °F
Humidity 68%
Rainfall 0.00 in
Snow Depth Not available.
UV 0.0 out of 12
Pollen 10.30 out of 12
Air Quality Not available.
Flu Activity Sporadic
METAR KCXY 252356Z 00000KT 10SM CLR 12/M07 A2972 RMK AO2 SLP066 T01171072 10128 20100 56010

More Conditions Fewer Conditions

Pressure 29.73 in
Visibility 10.0 miles
Clouds Clear
Windchill 47 °F
Dew Point 37 °F
Humidity 68%
Rainfall 0.00 in
Snow Depth Not available.
UV 0.0 out of 12
Pollen 10.30 out of 12
Air Quality Not available.
Flu Activity Sporadic
METAR KCXY 252356Z 00000KT 10SM CLR 12/M07 A2972 RMK AO2 SLP066 T01171072 10128 20100 56010

More Conditions Fewer Conditions

Nowcast | as of 5:27 PM EDT on April 25, 2015

Bands of showers will be across south central Pennsylvania this evening. Most of the showers will be along the Maryland border but a few showers may get as far north as Route 22 by midnight. The showers are moving southeast at 40 mph.

×

10-Day Weather Forecast

Almanac

Astronomy

Apr. 25, 2015 Rise Set
Actual Time
Civil Twilight
Nautical Twilight
Astronomical Twilight
Moon
Length of Visible Light
Length of Day
Tomorrow will be .
, % of the Moon is Illuminated

Today's Extremes

State Highs State Lows

Community

WunderPhotos

Upload Photos

1,816,856 photos uploaded!

WunderBlogs® & News

Nearby

Air Quality

  Air Quality AQ Index Pollutant
Not available.

Snow Depth

Station Depth Elevation

Earthquake Activity

City Distance Mag. Time & Date
Minimum magnitude displayed is 2.5.

Coastal Water Temperatures

Place Temperature

Stations

Nearby Weather Stations

Station Location Temp. Windchill Dew Point Humidity Wind Precip. Elev Updated Type